sensor_id;sensor_type;location;lat;lon;timestamp;pressure;altitude;pressure_sealevel;temperature;humidity
78741;BME280;68062;48.726;9.370;2023-04-24T00:01:09;97737.31;;;9.65;100.00
78741;BME280;68062;48.726;9.370;2023-04-24T00:03:36;97749.53;;;9.48;100.00
78741;BME280;68062;48.726;9.370;2023-04-24T00:06:05;97741.94;;;9.43;100.00
78741;BME280;68062;48.726;9.370;2023-04-24T00:08:33;97742.81;;;9.40;100.00
78741;BME280;68062;48.726;9.370;2023-04-24T00:11:01;97747.09;;;9.40;100.00
78741;BME280;68062;48.726;9.370;2023-04-24T00:13:28;97753.09;;;9.39;100.00
78741;BME280;68062;48.726;9.370;2023-04-24T00:15:55;97757.59;;;9.23;100.00
78741;BME280;68062;48.726;9.370;2023-04-24T00:18:22;97755.06;;;9.20;100.00
78741;BME280;68062;48.726;9.370;2023-04-24T00:20:55;97748.06;;;9.33;100.00
78741;BME280;68062;48.726;9.370;2023-04-24T00:23:24;97745.31;;;9.43;100.00
78741;BME280;68062;48.726;9.370;2023-04-24T00:25:51;97751.44;;;9.35;100.00
78741;BME280;68062;48.726;9.370;2023-04-24T00:28:17;97763.44;;;9.31;100.00
78741;BME280;68062;48.726;9.370;2023-04-24T00:30:44;97759.97;;;9.37;100.00
78741;BME280;68062;48.726;9.370;2023-04-24T00:33:10;97757.31;;;9.41;100.00
78741;BME280;68062;48.726;9.370;2023-04-24T00:35:37;97763.28;;;9.43;100.00
78741;BME280;68062;48.726;9.370;2023-04-24T00:38:04;97755.75;;;9.33;100.00
78741;BME280;68062;48.726;9.370;2023-04-24T00:40:32;97747.38;;;9.20;100.00
78741;BME280;68062;48.726;9.370;2023-04-24T00:42:59;97746.06;;;9.53;100.00
78741;BME280;68062;48.726;9.370;2023-04-24T00:45:26;97751.63;;;9.83;100.00
78741;BME280;68062;48.726;9.370;2023-04-24T00:47:53;97753.56;;;9.69;100.00
78741;BME280;68062;48.726;9.370;2023-04-24T00:50:20;97750.38;;;9.51;100.00
78741;BME280;68062;48.726;9.370;2023-04-24T00:52:47;97706.00;;;9.43;100.00
78741;BME280;68062;48.726;9.370;2023-04-24T00:55:13;97748.47;;;9.66;100.00
78741;BME280;68062;48.726;9.370;2023-04-24T00:57:41;97745.19;;;9.54;100.00
78741;BME280;68062;48.726;9.370;2023-04-24T01:00:10;97736.72;;;9.49;100.00
78741;BME280;68062;48.726;9.370;2023-04-24T01:02:38;97735.53;;;9.72;100.00
78741;BME280;68062;48.726;9.370;2023-04-24T01:05:10;97728.75;;;9.66;100.00
78741;BME280;68062;48.726;9.370;2023-04-24T01:07:37;97740.84;;;9.60;100.00
78741;BME280;68062;48.726;9.370;2023-04-24T01:10:05;97734.97;;;9.51;100.00
78741;BME280;68062;48.726;9.370;2023-04-24T01:12:32;97731.53;;;9.51;100.00
78741;BME280;68062;48.726;9.370;2023-04-24T01:15:00;97730.81;;;9.42;100.00
78741;BME280;68062;48.726;9.370;2023-04-24T01:17:27;97730.53;;;9.63;100.00
78741;BME280;68062;48.726;9.370;2023-04-24T01:19:53;97722.00;;;9.59;100.00
78741;BME280;68062;48.726;9.370;2023-04-24T01:22:24;97727.34;;;9.45;100.00
78741;BME280;68062;48.726;9.370;2023-04-24T01:24:51;97719.34;;;9.67;100.00
78741;BME280;68062;48.726;9.370;2023-04-24T01:27:19;97714.72;;;9.89;100.00
78741;BME280;68062;48.726;9.370;2023-04-24T01:29:46;97710.50;;;9.85;100.00
78741;BME280;68062;48.726;9.370;2023-04-24T01:32:14;97713.78;;;9.95;100.00
78741;BME280;68062;48.726;9.370;2023-04-24T01:34:43;97713.00;;;9.90;100.00
78741;BME280;68062;48.726;9.370;2023-04-24T01:37:10;97708.72;;;9.90;100.00
78741;BME280;68062;48.726;9.370;2023-04-24T01:39:38;97710.84;;;9.63;100.00
78741;BME280;68062;48.726;9.370;2023-04-24T01:42:05;97707.56;;;9.53;100.00
78741;BME280;68062;48.726;9.370;2023-04-24T01:44:33;97711.13;;;9.43;100.00
78741;BME280;68062;48.726;9.370;2023-04-24T01:47:00;97699.25;;;9.36;100.00
78741;BME280;68062;48.726;9.370;2023-04-24T01:49:27;97699.78;;;9.58;100.00
78741;BME280;68062;48.726;9.370;2023-04-24T01:51:54;97700.59;;;9.60;100.00
78741;BME280;68062;48.726;9.370;2023-04-24T01:54:20;97707.16;;;9.80;100.00
78741;BME280;68062;48.726;9.370;2023-04-24T01:56:49;97709.84;;;9.72;100.00
78741;BME280;68062;48.726;9.370;2023-04-24T01:59:16;97716.13;;;9.52;100.00
78741;BME280;68062;48.726;9.370;2023-04-24T02:01:44;97717.84;;;9.52;100.00
78741;BME280;68062;48.726;9.370;2023-04-24T02:04:10;97713.88;;;9.31;100.00
78741;BME280;68062;48.726;9.370;2023-04-24T02:06:37;97712.91;;;9.36;100.00
78741;BME280;68062;48.726;9.370;2023-04-24T02:09:04;97704.94;;;9.56;100.00
78741;BME280;68062;48.726;9.370;2023-04-24T02:11:31;97691.69;;;9.26;100.00
78741;BME280;68062;48.726;9.370;2023-04-24T02:13:59;97710.47;;;9.28;100.00
78741;BME280;68062;48.726;9.370;2023-04-24T02:16:27;97710.50;;;9.27;100.00
78741;BME280;68062;48.726;9.370;2023-04-24T02:18:56;97709.81;;;9.14;100.00
78741;BME280;68062;48.726;9.370;2023-04-24T02:21:23;97712.06;;;9.37;100.00
78741;BME280;68062;48.726;9.370;2023-04-24T02:23:50;97711.75;;;9.61;100.00
78741;BME280;68062;48.726;9.370;2023-04-24T02:26:17;97707.53;;;9.55;100.00
78741;BME280;68062;48.726;9.370;2023-04-24T02:28:44;97698.78;;;9.68;100.00
78741;BME280;68062;48.726;9.370;2023-04-24T02:31:12;97711.31;;;9.87;100.00
78741;BME280;68062;48.726;9.370;2023-04-24T02:33:39;97707.44;;;9.63;100.00
78741;BME280;68062;48.726;9.370;2023-04-24T02:36:06;97712.63;;;9.58;100.00
78741;BME280;68062;48.726;9.370;2023-04-24T02:38:33;97702.47;;;9.49;100.00
78741;BME280;68062;48.726;9.370;2023-04-24T02:41:00;97698.34;;;9.38;100.00
78741;BME280;68062;48.726;9.370;2023-04-24T02:43:27;97714.81;;;9.25;100.00
78741;BME280;68062;48.726;9.370;2023-04-24T02:45:54;97708.16;;;9.10;100.00
78741;BME280;68062;48.726;9.370;2023-04-24T02:48:22;97709.69;;;9.23;100.00
78741;BME280;68062;48.726;9.370;2023-04-24T02:50:49;97709.69;;;9.23;100.00
78741;BME280;68062;48.726;9.370;2023-04-24T02:53:16;97714.00;;;9.21;100.00
78741;BME280;68062;48.726;9.370;2023-04-24T02:55:43;97706.78;;;9.47;100.00
78741;BME280;68062;48.726;9.370;2023-04-24T02:58:10;97704.19;;;9.51;100.00
78741;BME280;68062;48.726;9.370;2023-04-24T03:00:38;97684.69;;;9.38;100.00
78741;BME280;68062;48.726;9.370;2023-04-24T03:03:04;97710.13;;;9.53;100.00
78741;BME280;68062;48.726;9.370;2023-04-24T03:05:33;97694.66;;;9.58;100.00
78741;BME280;68062;48.726;9.370;2023-04-24T03:08:00;97696.31;;;9.62;100.00
78741;BME280;68062;48.726;9.370;2023-04-24T03:10:27;97702.28;;;9.63;100.00
78741;BME280;68062;48.726;9.370;2023-04-24T03:12:54;97703.75;;;9.79;100.00
78741;BME280;68062;48.726;9.370;2023-04-24T03:15:21;97704.91;;;9.60;100.00
78741;BME280;68062;48.726;9.370;2023-04-24T03:17:47;97705.59;;;9.69;100.00
78741;BME280;68062;48.726;9.370;2023-04-24T03:20:14;97708.81;;;9.84;100.00
78741;BME280;68062;48.726;9.370;2023-04-24T03:22:42;97704.72;;;9.72;100.00
78741;BME280;68062;48.726;9.370;2023-04-24T03:25:09;97701.03;;;9.89;100.00
78741;BME280;68062;48.726;9.370;2023-04-24T03:27:36;97695.81;;;9.93;100.00
78741;BME280;68062;48.726;9.370;2023-04-24T03:30:12;97698.09;;;10.12;100.00
78741;BME280;68062;48.726;9.370;2023-04-24T03:32:45;97685.03;;;10.24;100.00
78741;BME280;68062;48.726;9.370;2023-04-24T03:35:16;97695.78;;;9.96;100.00
78741;BME280;68062;48.726;9.370;2023-04-24T03:37:44;97707.00;;;9.91;100.00
78741;BME280;68062;48.726;9.370;2023-04-24T03:40:30;97712.28;;;9.81;100.00
78741;BME280;68062;48.726;9.370;2023-04-24T03:43:00;97677.59;;;9.54;100.00
78741;BME280;68062;48.726;9.370;2023-04-24T03:45:27;97699.31;;;9.89;100.00
78741;BME280;68062;48.726;9.370;2023-04-24T03:47:53;97705.56;;;9.74;100.00
78741;BME280;68062;48.726;9.370;2023-04-24T03:50:21;97703.84;;;9.71;100.00
78741;BME280;68062;48.726;9.370;2023-04-24T03:52:49;97704.59;;;9.80;100.00
78741;BME280;68062;48.726;9.370;2023-04-24T03:55:27;97703.06;;;9.68;100.00
78741;BME280;68062;48.726;9.370;2023-04-24T03:57:54;97702.81;;;9.85;100.00
78741;BME280;68062;48.726;9.370;2023-04-24T04:00:21;97701.25;;;9.76;100.00
78741;BME280;68062;48.726;9.370;2023-04-24T04:02:59;97712.56;;;9.61;100.00
78741;BME280;68062;48.726;9.370;2023-04-24T04:05:26;97704.91;;;9.60;100.00
78741;BME280;68062;48.726;9.370;2023-04-24T04:07:54;97709.34;;;9.48;100.00
78741;BME280;68062;48.726;9.370;2023-04-24T04:10:21;97708.81;;;9.24;100.00
78741;BME280;68062;48.726;9.370;2023-04-24T04:12:48;97718.41;;;9.10;100.00
78741;BME280;68062;48.726;9.370;2023-04-24T04:15:15;97718.50;;;9.04;100.00
78741;BME280;68062;48.726;9.370;2023-04-24T04:17:42;97727.88;;;9.06;100.00
78741;BME280;68062;48.726;9.370;2023-04-24T04:20:10;97727.91;;;9.03;100.00
78741;BME280;68062;48.726;9.370;2023-04-24T04:22:38;97727.94;;;9.00;100.00
78741;BME280;68062;48.726;9.370;2023-04-24T04:25:09;97726.66;;;9.34;100.00
78741;BME280;68062;48.726;9.370;2023-04-24T04:27:37;97728.19;;;9.47;100.00
78741;BME280;68062;48.726;9.370;2023-04-24T04:30:09;97730.44;;;9.69;100.00
78741;BME280;68062;48.726;9.370;2023-04-24T04:32:45;97735.44;;;9.78;100.00
78741;BME280;68062;48.726;9.370;2023-04-24T04:35:12;97704.22;;;9.48;100.00
78741;BME280;68062;48.726;9.370;2023-04-24T04:37:39;97733.78;;;9.74;100.00
78741;BME280;68062;48.726;9.370;2023-04-24T04:40:16;97744.25;;;9.60;100.00
78741;BME280;68062;48.726;9.370;2023-04-24T04:42:50;97755.47;;;9.53;100.00
78741;BME280;68062;48.726;9.370;2023-04-24T04:45:19;97761.47;;;9.53;100.00
78741;BME280;68062;48.726;9.370;2023-04-24T04:48:06;97770.16;;;9.43;100.00
78741;BME280;68062;48.726;9.370;2023-04-24T04:50:35;97800.13;;;9.39;100.00
78741;BME280;68062;48.726;9.370;2023-04-24T04:53:06;97809.78;;;9.22;100.00
78741;BME280;68062;48.726;9.370;2023-04-24T04:55:37;97808.47;;;8.82;100.00
78741;BME280;68062;48.726;9.370;2023-04-24T04:58:10;97805.94;;;8.80;100.00
78741;BME280;68062;48.726;9.370;2023-04-24T05:00:37;97819.75;;;8.64;100.00
78741;BME280;68062;48.726;9.370;2023-04-24T05:03:27;97828.41;;;8.49;100.00
78741;BME280;68062;48.726;9.370;2023-04-24T05:06:00;97781.88;;;7.89;100.00
78741;BME280;68062;48.726;9.370;2023-04-24T05:08:30;97826.13;;;8.13;100.00
78741;BME280;68062;48.726;9.370;2023-04-24T05:10:59;97809.22;;;7.84;100.00
78741;BME280;68062;48.726;9.370;2023-04-24T05:13:28;97832.25;;;7.92;100.00
78741;BME280;68062;48.726;9.370;2023-04-24T05:15:55;97833.84;;;8.04;100.00
78741;BME280;68062;48.726;9.370;2023-04-24T05:18:22;97834.75;;;7.97;100.00
78741;BME280;68062;48.726;9.370;2023-04-24T05:20:49;97842.47;;;7.95;100.00
78741;BME280;68062;48.726;9.370;2023-04-24T05:23:15;97849.22;;;8.04;100.00
78741;BME280;68062;48.726;9.370;2023-04-24T05:25:45;97849.16;;;8.16;100.00
78741;BME280;68062;48.726;9.370;2023-04-24T05:28:14;97843.03;;;8.31;100.00
78741;BME280;68062;48.726;9.370;2023-04-24T05:30:46;97861.88;;;8.29;100.00
78741;BME280;68062;48.726;9.370;2023-04-24T05:33:14;97872.16;;;8.21;100.00
78741;BME280;68062;48.726;9.370;2023-04-24T05:35:41;97872.97;;;8.28;100.00
78741;BME280;68062;48.726;9.370;2023-04-24T05:38:11;97882.28;;;8.36;100.00
78741;BME280;68062;48.726;9.370;2023-04-24T05:40:38;97853.44;;;8.14;100.00
78741;BME280;68062;48.726;9.370;2023-04-24T05:43:05;97881.50;;;8.28;100.00
78741;BME280;68062;48.726;9.370;2023-04-24T05:45:34;97888.41;;;8.14;100.00
78741;BME280;68062;48.726;9.370;2023-04-24T05:48:01;97887.50;;;8.21;100.00
78741;BME280;68062;48.726;9.370;2023-04-24T05:50:28;97898.59;;;8.23;100.00
78741;BME280;68062;48.726;9.370;2023-04-24T05:52:56;97900.19;;;8.44;100.00
78741;BME280;68062;48.726;9.370;2023-04-24T05:55:30;97900.13;;;8.57;100.00
78741;BME280;68062;48.726;9.370;2023-04-24T05:57:57;97910.22;;;8.78;100.00
78741;BME280;68062;48.726;9.370;2023-04-24T06:00:25;97921.19;;;8.96;100.00
78741;BME280;68062;48.726;9.370;2023-04-24T06:03:00;97909.94;;;9.08;100.00
78741;BME280;68062;48.726;9.370;2023-04-24T06:05:29;97909.06;;;9.09;100.00
78741;BME280;68062;48.726;9.370;2023-04-24T06:07:56;97906.50;;;9.09;100.00
78741;BME280;68062;48.726;9.370;2023-04-24T06:10:26;97918.56;;;9.02;100.00
78741;BME280;68062;48.726;9.370;2023-04-24T06:12:53;97917.75;;;8.97;100.00
78741;BME280;68062;48.726;9.370;2023-04-24T06:15:22;97910.09;;;8.94;100.00
78741;BME280;68062;48.726;9.370;2023-04-24T06:17:52;97903.97;;;9.06;100.00
78741;BME280;68062;48.726;9.370;2023-04-24T06:20:21;97911.44;;;9.31;100.00
78741;BME280;68062;48.726;9.370;2023-04-24T06:22:48;97920.59;;;9.52;100.00
78741;BME280;68062;48.726;9.370;2023-04-24T06:25:16;97903.41;;;9.60;100.00
78741;BME280;68062;48.726;9.370;2023-04-24T06:27:42;97906.75;;;9.67;100.00
78741;BME280;68062;48.726;9.370;2023-04-24T06:30:10;97903.41;;;9.60;100.00
78741;BME280;68062;48.726;9.370;2023-04-24T06:32:38;97905.59;;;9.91;100.00
78741;BME280;68062;48.726;9.370;2023-04-24T06:35:06;97895.34;;;10.52;100.00
78741;BME280;68062;48.726;9.370;2023-04-24T06:37:36;97897.38;;;11.79;96.07
78741;BME280;68062;48.726;9.370;2023-04-24T06:40:03;97893.44;;;12.79;85.10
78741;BME280;68062;48.726;9.370;2023-04-24T06:42:31;97891.59;;;13.19;84.33
78741;BME280;68062;48.726;9.370;2023-04-24T06:44:58;97891.03;;;14.57;76.74
78741;BME280;68062;48.726;9.370;2023-04-24T06:47:24;97874.72;;;14.55;75.65
78741;BME280;68062;48.726;9.370;2023-04-24T06:49:51;97895.94;;;15.19;73.34
78741;BME280;68062;48.726;9.370;2023-04-24T06:52:18;97893.38;;;15.43;70.04
78741;BME280;68062;48.726;9.370;2023-04-24T06:54:47;97900.38;;;14.35;72.04
78741;BME280;68062;48.726;9.370;2023-04-24T06:57:13;97897.47;;;14.73;72.60
78741;BME280;68062;48.726;9.370;2023-04-24T06:59:42;97890.94;;;15.64;70.19
78741;BME280;68062;48.726;9.370;2023-04-24T07:02:09;97902.00;;;15.18;67.32
78741;BME280;68062;48.726;9.370;2023-04-24T07:04:36;97895.25;;;14.60;72.45
78741;BME280;68062;48.726;9.370;2023-04-24T07:07:03;97893.88;;;13.30;74.83
78741;BME280;68062;48.726;9.370;2023-04-24T07:09:29;97899.44;;;13.79;74.42
78741;BME280;68062;48.726;9.370;2023-04-24T07:11:58;97899.72;;;14.83;72.22
78741;BME280;68062;48.726;9.370;2023-04-24T07:14:25;97896.41;;;15.80;70.14
78741;BME280;68062;48.726;9.370;2023-04-24T07:16:51;97900.84;;;15.76;67.84
78741;BME280;68062;48.726;9.370;2023-04-24T07:19:18;97895.16;;;15.42;65.43
78741;BME280;68062;48.726;9.370;2023-04-24T07:21:45;97890.69;;;14.41;68.21
78741;BME280;68062;48.726;9.370;2023-04-24T07:24:11;97886.16;;;14.48;68.43
78741;BME280;68062;48.726;9.370;2023-04-24T07:26:39;97889.63;;;14.47;69.71
78741;BME280;68062;48.726;9.370;2023-04-24T07:29:07;97866.44;;;13.89;72.35
78741;BME280;68062;48.726;9.370;2023-04-24T07:31:34;97887.19;;;13.56;74.29
78741;BME280;68062;48.726;9.370;2023-04-24T07:34:00;97887.31;;;12.83;80.42
78741;BME280;68062;48.726;9.370;2023-04-24T07:36:28;97900.81;;;11.78;80.25
78741;BME280;68062;48.726;9.370;2023-04-24T07:38:55;97899.47;;;10.63;86.86
78741;BME280;68062;48.726;9.370;2023-04-24T07:41:22;97907.59;;;10.33;94.53
78741;BME280;68062;48.726;9.370;2023-04-24T07:43:49;97929.88;;;10.34;90.07
78741;BME280;68062;48.726;9.370;2023-04-24T07:46:18;97934.22;;;10.29;96.67
78741;BME280;68062;48.726;9.370;2023-04-24T07:48:45;97922.63;;;9.98;95.57
78741;BME280;68062;48.726;9.370;2023-04-24T07:51:14;97942.13;;;10.12;95.88
78741;BME280;68062;48.726;9.370;2023-04-24T07:53:41;97952.78;;;9.82;91.58
78741;BME280;68062;48.726;9.370;2023-04-24T07:56:07;97950.75;;;10.08;90.48
78741;BME280;68062;48.726;9.370;2023-04-24T07:58:35;97950.22;;;11.55;81.13
78741;BME280;68062;48.726;9.370;2023-04-24T08:01:01;97951.38;;;13.02;71.65
78741;BME280;68062;48.726;9.370;2023-04-24T08:03:29;97951.69;;;14.77;68.89
78741;BME280;68062;48.726;9.370;2023-04-24T08:05:56;97941.47;;;16.23;63.81
78741;BME280;68062;48.726;9.370;2023-04-24T08:08:25;97931.22;;;16.87;59.34
78741;BME280;68062;48.726;9.370;2023-04-24T08:10:51;97909.44;;;15.29;60.08
78741;BME280;68062;48.726;9.370;2023-04-24T08:13:18;97955.59;;;15.67;62.17
78741;BME280;68062;48.726;9.370;2023-04-24T08:15:45;97950.06;;;15.27;59.40
78741;BME280;68062;48.726;9.370;2023-04-24T08:18:12;97947.28;;;15.33;59.49
78741;BME280;68062;48.726;9.370;2023-04-24T08:20:42;97947.00;;;14.60;59.68
78741;BME280;68062;48.726;9.370;2023-04-24T08:23:11;97939.72;;;16.47;56.52
78741;BME280;68062;48.726;9.370;2023-04-24T08:25:37;97949.16;;;16.26;51.93
78741;BME280;68062;48.726;9.370;2023-04-24T08:28:06;97949.91;;;14.79;57.61
78741;BME280;68062;48.726;9.370;2023-04-24T08:30:35;97959.44;;;13.57;61.24
78741;BME280;68062;48.726;9.370;2023-04-24T08:33:02;97973.19;;;12.88;64.54
78741;BME280;68062;48.726;9.370;2023-04-24T08:35:29;97979.44;;;12.79;59.75
78741;BME280;68062;48.726;9.370;2023-04-24T08:37:57;97969.34;;;12.31;62.85
78741;BME280;68062;48.726;9.370;2023-04-24T08:40:27;97943.81;;;12.18;63.09
78741;BME280;68062;48.726;9.370;2023-04-24T08:42:55;97985.44;;;11.53;63.62
78741;BME280;68062;48.726;9.370;2023-04-24T08:45:23;97986.81;;;11.24;65.64
78741;BME280;68062;48.726;9.370;2023-04-24T08:47:51;97996.72;;;11.45;67.56
78741;BME280;68062;48.726;9.370;2023-04-24T08:50:19;97983.88;;;11.44;66.00
78741;BME280;68062;48.726;9.370;2023-04-24T08:52:47;97995.28;;;13.00;61.34
78741;BME280;68062;48.726;9.370;2023-04-24T08:55:17;97993.94;;;14.78;56.79
78741;BME280;68062;48.726;9.370;2023-04-24T08:57:50;97989.88;;;14.69;58.32
78741;BME280;68062;48.726;9.370;2023-04-24T09:00:18;97975.91;;;14.75;57.37
78741;BME280;68062;48.726;9.370;2023-04-24T09:02:47;97984.03;;;14.62;55.96
78741;BME280;68062;48.726;9.370;2023-04-24T09:05:16;97978.31;;;13.92;56.77
78741;BME280;68062;48.726;9.370;2023-04-24T09:07:46;97992.03;;;13.94;57.61
78741;BME280;68062;48.726;9.370;2023-04-24T09:10:17;97979.22;;;13.23;59.21
78741;BME280;68062;48.726;9.370;2023-04-24T09:12:44;97979.13;;;12.56;60.72
78741;BME280;68062;48.726;9.370;2023-04-24T09:15:12;97990.66;;;12.38;59.93
78741;BME280;68062;48.726;9.370;2023-04-24T09:17:39;98006.44;;;12.22;60.36
78741;BME280;68062;48.726;9.370;2023-04-24T09:20:07;97998.00;;;12.56;59.75
78741;BME280;68062;48.726;9.370;2023-04-24T09:22:34;97997.91;;;12.61;58.74
78741;BME280;68062;48.726;9.370;2023-04-24T09:25:02;98007.38;;;13.69;56.91
78741;BME280;68062;48.726;9.370;2023-04-24T09:27:32;98020.06;;;13.07;58.29
78741;BME280;68062;48.726;9.370;2023-04-24T09:30:00;98008.78;;;12.75;57.53
78741;BME280;68062;48.726;9.370;2023-04-24T09:32:28;97995.34;;;12.59;57.14
78741;BME280;68062;48.726;9.370;2023-04-24T09:35:09;98022.34;;;12.00;58.83
78741;BME280;68062;48.726;9.370;2023-04-24T09:37:37;98033.72;;;11.90;58.16
78741;BME280;68062;48.726;9.370;2023-04-24T09:40:17;98032.66;;;11.99;58.32
78741;BME280;68062;48.726;9.370;2023-04-24T09:42:46;98021.41;;;11.57;58.74
78741;BME280;68062;48.726;9.370;2023-04-24T09:45:18;98037.81;;;11.99;56.72
78741;BME280;68062;48.726;9.370;2023-04-24T09:47:45;98035.59;;;11.80;58.49
78741;BME280;68062;48.726;9.370;2023-04-24T09:50:13;98026.97;;;11.83;58.77
78741;BME280;68062;48.726;9.370;2023-04-24T09:52:42;98032.97;;;12.29;59.45
78741;BME280;68062;48.726;9.370;2023-04-24T09:55:18;98022.28;;;12.03;58.85
78741;BME280;68062;48.726;9.370;2023-04-24T09:57:51;98031.22;;;12.31;56.45
78741;BME280;68062;48.726;9.370;2023-04-24T10:00:21;98025.88;;;12.40;53.46
78741;BME280;68062;48.726;9.370;2023-04-24T10:02:54;98026.09;;;13.77;50.29
78741;BME280;68062;48.726;9.370;2023-04-24T10:05:23;98019.09;;;15.01;48.16
78741;BME280;68062;48.726;9.370;2023-04-24T10:07:50;98014.56;;;15.85;46.46
78741;BME280;68062;48.726;9.370;2023-04-24T10:10:17;98015.53;;;15.32;47.76
78741;BME280;68062;48.726;9.370;2023-04-24T10:12:44;98022.50;;;15.55;46.01
78741;BME280;68062;48.726;9.370;2023-04-24T10:15:12;98028.72;;;14.67;48.16
78741;BME280;68062;48.726;9.370;2023-04-24T10:17:40;98011.91;;;13.24;50.98
78741;BME280;68062;48.726;9.370;2023-04-24T10:20:08;98039.69;;;12.77;52.51
78741;BME280;68062;48.726;9.370;2023-04-24T10:22:36;98045.81;;;12.30;52.01
78741;BME280;68062;48.726;9.370;2023-04-24T10:25:07;98018.31;;;11.87;52.75
78741;BME280;68062;48.726;9.370;2023-04-24T10:27:35;98028.25;;;12.05;52.31
78741;BME280;68062;48.726;9.370;2023-04-24T10:30:04;98046.88;;;13.38;51.44
78741;BME280;68062;48.726;9.370;2023-04-24T10:32:33;98050.06;;;13.49;50.98
78741;BME280;68062;48.726;9.370;2023-04-24T10:35:00;98038.88;;;14.45;47.32
78741;BME280;68062;48.726;9.370;2023-04-24T10:37:28;98037.91;;;15.60;45.79
78741;BME280;68062;48.726;9.370;2023-04-24T10:39:55;98030.03;;;14.82;45.63
78741;BME280;68062;48.726;9.370;2023-04-24T10:42:22;98029.19;;;14.82;46.61
78741;BME280;68062;48.726;9.370;2023-04-24T10:44:49;98055.66;;;15.72;44.74
78741;BME280;68062;48.726;9.370;2023-04-24T10:47:16;98028.53;;;14.75;45.79
78741;BME280;68062;48.726;9.370;2023-04-24T10:49:44;98044.63;;;15.13;44.33
78741;BME280;68062;48.726;9.370;2023-04-24T10:52:11;98049.28;;;14.44;45.61
78741;BME280;68062;48.726;9.370;2023-04-24T10:54:42;98046.00;;;13.74;47.61
78741;BME280;68062;48.726;9.370;2023-04-24T10:57:26;98033.25;;;13.31;48.29
78741;BME280;68062;48.726;9.370;2023-04-24T11:00:13;98069.06;;;14.13;48.74
78741;BME280;68062;48.726;9.370;2023-04-24T11:02:42;98094.75;;;13.88;49.07
78741;BME280;68062;48.726;9.370;2023-04-24T11:05:16;98077.38;;;13.60;49.24
78741;BME280;68062;48.726;9.370;2023-04-24T11:08:11;98090.72;;;12.64;51.56
78741;BME280;68062;48.726;9.370;2023-04-24T11:10:44;98084.59;;;12.24;53.40
78741;BME280;68062;48.726;9.370;2023-04-24T11:13:14;98087.47;;;12.09;54.37
78741;BME280;68062;48.726;9.370;2023-04-24T11:15:41;98070.94;;;11.72;54.50
78741;BME280;68062;48.726;9.370;2023-04-24T11:18:13;98093.56;;;11.54;56.27
78741;BME280;68062;48.726;9.370;2023-04-24T11:20:43;98062.09;;;11.87;56.08
78741;BME280;68062;48.726;9.370;2023-04-24T11:23:12;98107.16;;;11.62;56.38
78741;BME280;68062;48.726;9.370;2023-04-24T11:25:39;98103.13;;;11.47;56.32
78741;BME280;68062;48.726;9.370;2023-04-24T11:28:05;98101.56;;;11.37;56.85
78741;BME280;68062;48.726;9.370;2023-04-24T11:30:33;98105.59;;;11.54;56.90
78741;BME280;68062;48.726;9.370;2023-04-24T11:33:04;98118.56;;;11.46;57.97
78741;BME280;68062;48.726;9.370;2023-04-24T11:35:35;98111.91;;;11.34;59.09
78741;BME280;68062;48.726;9.370;2023-04-24T11:38:04;98134.13;;;11.40;58.66
78741;BME280;68062;48.726;9.370;2023-04-24T11:40:31;98122.81;;;11.50;58.82
78741;BME280;68062;48.726;9.370;2023-04-24T11:42:59;98127.66;;;11.69;58.00
78741;BME280;68062;48.726;9.370;2023-04-24T11:45:28;98127.56;;;11.75;58.19
78741;BME280;68062;48.726;9.370;2023-04-24T11:47:55;98121.69;;;11.67;57.13
78741;BME280;68062;48.726;9.370;2023-04-24T11:50:24;98107.53;;;11.91;57.67
78741;BME280;68062;48.726;9.370;2023-04-24T11:52:53;98125.44;;;11.99;56.86
78741;BME280;68062;48.726;9.370;2023-04-24T11:55:27;98124.31;;;12.14;56.98
78741;BME280;68062;48.726;9.370;2023-04-24T11:57:56;98130.69;;;12.41;56.87
78741;BME280;68062;48.726;9.370;2023-04-24T12:00:24;98071.69;;;11.78;57.07
78741;BME280;68062;48.726;9.370;2023-04-24T12:02:52;98138.69;;;11.77;58.75
78741;BME280;68062;48.726;9.370;2023-04-24T12:05:29;98137.19;;;11.65;59.33
78741;BME280;68062;48.726;9.370;2023-04-24T12:07:57;98143.94;;;11.72;58.60
78741;BME280;68062;48.726;9.370;2023-04-24T12:10:26;98128.63;;;11.03;58.10
78741;BME280;68062;48.726;9.370;2023-04-24T12:12:55;98152.66;;;11.04;59.83
78741;BME280;68062;48.726;9.370;2023-04-24T12:15:22;98150.66;;;11.23;58.97
78741;BME280;68062;48.726;9.370;2023-04-24T12:17:51;98146.50;;;11.72;57.61
78741;BME280;68062;48.726;9.370;2023-04-24T12:20:24;98144.72;;;12.28;57.07
78741;BME280;68062;48.726;9.370;2023-04-24T12:22:52;98154.72;;;13.27;53.78
78741;BME280;68062;48.726;9.370;2023-04-24T12:25:22;98160.16;;;13.14;54.49
78741;BME280;68062;48.726;9.370;2023-04-24T12:27:54;98134.41;;;13.11;53.51
78741;BME280;68062;48.726;9.370;2023-04-24T12:30:26;98152.28;;;13.60;53.48
78741;BME280;68062;48.726;9.370;2023-04-24T12:32:54;98142.19;;;12.69;53.96
78741;BME280;68062;48.726;9.370;2023-04-24T12:35:24;98162.97;;;12.15;57.26
78741;BME280;68062;48.726;9.370;2023-04-24T12:37:51;98155.31;;;11.59;58.46
78741;BME280;68062;48.726;9.370;2023-04-24T12:40:20;98163.03;;;11.57;60.66
78741;BME280;68062;48.726;9.370;2023-04-24T12:42:49;98159.63;;;11.57;60.12
78741;BME280;68062;48.726;9.370;2023-04-24T12:45:18;98150.19;;;11.54;60.62
78741;BME280;68062;48.726;9.370;2023-04-24T12:47:46;98148.63;;;11.99;58.96
78741;BME280;68062;48.726;9.370;2023-04-24T12:50:13;98145.59;;;12.71;57.19
78741;BME280;68062;48.726;9.370;2023-04-24T12:52:41;98150.41;;;12.45;55.81
78741;BME280;68062;48.726;9.370;2023-04-24T12:55:08;98141.50;;;12.60;55.67
78741;BME280;68062;48.726;9.370;2023-04-24T12:57:37;98154.31;;;12.63;55.08
78741;BME280;68062;48.726;9.370;2023-04-24T13:00:05;98146.06;;;12.90;55.04
78741;BME280;68062;48.726;9.370;2023-04-24T13:02:34;98136.19;;;13.09;55.93
78741;BME280;68062;48.726;9.370;2023-04-24T13:05:02;98142.16;;;12.70;54.97
78741;BME280;68062;48.726;9.370;2023-04-24T13:07:29;98154.81;;;12.39;56.09